sensor_id;sensor_type;location;lat;lon;timestamp;temperature;humidity
1367;DHT22;16877;48.810;9.282;2024-03-23T00:52:36;21.90;44.50
1367;DHT22;16877;48.810;9.282;2024-03-23T00:55:03;21.80;44.20
1367;DHT22;16877;48.810;9.282;2024-03-23T00:57:29;21.70;44.00
1367;DHT22;16877;48.810;9.282;2024-03-23T00:59:55;21.70;43.90
1367;DHT22;16877;48.810;9.282;2024-03-23T01:02:21;21.60;43.80
1367;DHT22;16877;48.810;9.282;2024-03-23T01:04:48;21.60;43.70
1367;DHT22;16877;48.810;9.282;2024-03-23T01:07:13;21.60;43.70
1367;DHT22;16877;48.810;9.282;2024-03-23T01:09:41;21.60;43.70
1367;DHT22;16877;48.810;9.282;2024-03-23T01:12:07;21.50;43.60
1367;DHT22;16877;48.810;9.282;2024-03-23T01:14:34;21.40;43.50
1367;DHT22;16877;48.810;9.282;2024-03-23T01:17:01;21.40;43.60
1367;DHT22;16877;48.810;9.282;2024-03-23T01:19:27;21.40;43.60
1367;DHT22;16877;48.810;9.282;2024-03-23T01:21:54;21.40;43.70
1367;DHT22;16877;48.810;9.282;2024-03-23T01:24:19;21.50;43.70
1367;DHT22;16877;48.810;9.282;2024-03-23T01:26:47;21.40;43.70
1367;DHT22;16877;48.810;9.282;2024-03-23T01:29:13;21.50;44.30
1367;DHT22;16877;48.810;9.282;2024-03-23T01:31:39;21.40;43.70
1367;DHT22;16877;48.810;9.282;2024-03-23T01:34:05;21.40;43.70
1367;DHT22;16877;48.810;9.282;2024-03-23T01:36:32;21.40;43.70
1367;DHT22;16877;48.810;9.282;2024-03-23T01:38:57;21.40;43.80
1367;DHT22;16877;48.810;9.282;2024-03-23T01:41:24;21.40;43.80
1367;DHT22;16877;48.810;9.282;2024-03-23T01:43:52;21.40;43.80
1367;DHT22;16877;48.810;9.282;2024-03-23T01:46:19;21.40;43.90
1367;DHT22;16877;48.810;9.282;2024-03-23T01:48:45;21.40;43.90
1367;DHT22;16877;48.810;9.282;2024-03-23T01:51:13;21.40;43.90
1367;DHT22;16877;48.810;9.282;2024-03-23T01:53:38;21.40;43.90
1367;DHT22;16877;48.810;9.282;2024-03-23T01:56:05;21.40;44.00
1367;DHT22;16877;48.810;9.282;2024-03-23T01:58:31;21.40;44.00
1367;DHT22;16877;48.810;9.282;2024-03-23T02:00:59;21.40;44.10
1367;DHT22;16877;48.810;9.282;2024-03-23T02:03:26;21.40;44.20
1367;DHT22;16877;48.810;9.282;2024-03-23T02:05:53;21.30;44.20
1367;DHT22;16877;48.810;9.282;2024-03-23T02:08:21;21.30;44.20
1367;DHT22;16877;48.810;9.282;2024-03-23T02:10:48;21.30;44.20
1367;DHT22;16877;48.810;9.282;2024-03-23T02:13:14;21.30;44.20
1367;DHT22;16877;48.810;9.282;2024-03-23T02:15:41;21.30;44.40
1367;DHT22;16877;48.810;9.282;2024-03-23T02:18:08;21.30;44.40
1367;DHT22;16877;48.810;9.282;2024-03-23T02:20:35;21.30;44.50
1367;DHT22;16877;48.810;9.282;2024-03-23T02:23:03;21.20;44.50
1367;DHT22;16877;48.810;9.282;2024-03-23T02:25:31;21.30;44.60
1367;DHT22;16877;48.810;9.282;2024-03-23T02:27:57;21.30;44.60
1367;DHT22;16877;48.810;9.282;2024-03-23T02:30:24;21.20;44.60
1367;DHT22;16877;48.810;9.282;2024-03-23T02:32:50;21.30;44.70
1367;DHT22;16877;48.810;9.282;2024-03-23T02:35:16;21.30;44.80
1367;DHT22;16877;48.810;9.282;2024-03-23T02:37:42;21.20;44.70
1367;DHT22;16877;48.810;9.282;2024-03-23T02:40:10;21.30;44.90
1367;DHT22;16877;48.810;9.282;2024-03-23T02:42:36;21.30;44.90
1367;DHT22;16877;48.810;9.282;2024-03-23T02:45:03;21.20;44.90
1367;DHT22;16877;48.810;9.282;2024-03-23T02:47:30;21.20;45.00
1367;DHT22;16877;48.810;9.282;2024-03-23T02:49:56;21.20;45.10
1367;DHT22;16877;48.810;9.282;2024-03-23T02:52:22;21.20;45.00
1367;DHT22;16877;48.810;9.282;2024-03-23T02:54:49;21.20;45.00
1367;DHT22;16877;48.810;9.282;2024-03-23T02:57:16;21.20;45.10
1367;DHT22;16877;48.810;9.282;2024-03-23T02:59:42;21.20;45.00
1367;DHT22;16877;48.810;9.282;2024-03-23T03:02:08;21.20;45.10
1367;DHT22;16877;48.810;9.282;2024-03-23T03:04:35;21.30;45.20
1367;DHT22;16877;48.810;9.282;2024-03-23T03:07:01;21.20;45.20
1367;DHT22;16877;48.810;9.282;2024-03-23T03:09:27;21.30;45.30
1367;DHT22;16877;48.810;9.282;2024-03-23T03:11:53;21.20;45.30
1367;DHT22;16877;48.810;9.282;2024-03-23T03:14:21;21.30;45.50
1367;DHT22;16877;48.810;9.282;2024-03-23T03:16:47;21.30;45.50
1367;DHT22;16877;48.810;9.282;2024-03-23T03:19:13;21.20;45.60
1367;DHT22;16877;48.810;9.282;2024-03-23T03:21:39;21.20;45.60
1367;DHT22;16877;48.810;9.282;2024-03-23T03:24:06;21.20;45.70
1367;DHT22;16877;48.810;9.282;2024-03-23T03:26:32;21.20;45.70
1367;DHT22;16877;48.810;9.282;2024-03-23T03:28:59;21.20;45.80
1367;DHT22;16877;48.810;9.282;2024-03-23T03:31:26;21.20;45.80
1367;DHT22;16877;48.810;9.282;2024-03-23T03:33:52;21.20;45.90
1367;DHT22;16877;48.810;9.282;2024-03-23T03:36:18;21.20;46.00
1367;DHT22;16877;48.810;9.282;2024-03-23T03:38:45;21.20;45.90
1367;DHT22;16877;48.810;9.282;2024-03-23T03:41:11;21.20;45.90
1367;DHT22;16877;48.810;9.282;2024-03-23T03:43:37;21.10;45.90
1367;DHT22;16877;48.810;9.282;2024-03-23T03:46:03;21.20;46.20
1367;DHT22;16877;48.810;9.282;2024-03-23T03:48:31;21.10;46.10
1367;DHT22;16877;48.810;9.282;2024-03-23T03:50:57;21.10;46.10
1367;DHT22;16877;48.810;9.282;2024-03-23T03:53:24;21.10;46.20
1367;DHT22;16877;48.810;9.282;2024-03-23T03:55:49;21.10;46.20
1367;DHT22;16877;48.810;9.282;2024-03-23T03:58:16;21.10;46.30
1367;DHT22;16877;48.810;9.282;2024-03-23T04:00:42;21.10;46.40
1367;DHT22;16877;48.810;9.282;2024-03-23T04:03:08;21.00;46.50
1367;DHT22;16877;48.810;9.282;2024-03-23T04:05:35;21.10;46.60
1367;DHT22;16877;48.810;9.282;2024-03-23T04:08:03;21.00;46.60
1367;DHT22;16877;48.810;9.282;2024-03-23T04:10:29;21.00;46.60
1367;DHT22;16877;48.810;9.282;2024-03-23T04:12:56;21.10;46.80
1367;DHT22;16877;48.810;9.282;2024-03-23T04:15:22;21.00;46.70
1367;DHT22;16877;48.810;9.282;2024-03-23T04:17:48;21.00;46.80
1367;DHT22;16877;48.810;9.282;2024-03-23T04:20:14;21.00;46.80
1367;DHT22;16877;48.810;9.282;2024-03-23T04:22:43;21.00;46.90
1367;DHT22;16877;48.810;9.282;2024-03-23T04:25:09;21.00;47.00
1367;DHT22;16877;48.810;9.282;2024-03-23T04:27:36;21.00;47.10
1367;DHT22;16877;48.810;9.282;2024-03-23T04:30:02;21.00;47.10
1367;DHT22;16877;48.810;9.282;2024-03-23T04:32:30;20.90;47.10
1367;DHT22;16877;48.810;9.282;2024-03-23T04:34:56;21.00;47.20
1367;DHT22;16877;48.810;9.282;2024-03-23T04:37:22;21.00;47.10
1367;DHT22;16877;48.810;9.282;2024-03-23T04:39:50;21.00;47.10
1367;DHT22;16877;48.810;9.282;2024-03-23T04:42:18;21.10;47.10
1367;DHT22;16877;48.810;9.282;2024-03-23T04:44:44;21.10;47.00
1367;DHT22;16877;48.810;9.282;2024-03-23T04:47:11;21.00;47.80
1367;DHT22;16877;48.810;9.282;2024-03-23T04:49:38;21.00;48.70
1367;DHT22;16877;48.810;9.282;2024-03-23T04:52:05;21.00;49.30
1367;DHT22;16877;48.810;9.282;2024-03-23T04:54:32;21.10;49.90
1367;DHT22;16877;48.810;9.282;2024-03-23T04:57:00;21.10;50.30
1367;DHT22;16877;48.810;9.282;2024-03-23T04:59:26;21.00;50.50
1367;DHT22;16877;48.810;9.282;2024-03-23T05:01:52;21.00;50.80
1367;DHT22;16877;48.810;9.282;2024-03-23T05:04:18;21.00;51.00
1367;DHT22;16877;48.810;9.282;2024-03-23T05:06:45;21.00;51.30
1367;DHT22;16877;48.810;9.282;2024-03-23T05:09:10;20.90;51.30
1367;DHT22;16877;48.810;9.282;2024-03-23T05:11:38;21.00;51.60
1367;DHT22;16877;48.810;9.282;2024-03-23T05:14:05;20.90;51.80
1367;DHT22;16877;48.810;9.282;2024-03-23T05:16:32;20.90;51.80
1367;DHT22;16877;48.810;9.282;2024-03-23T05:18:58;20.90;51.90
1367;DHT22;16877;48.810;9.282;2024-03-23T05:21:24;20.80;52.00
1367;DHT22;16877;48.810;9.282;2024-03-23T05:23:50;20.80;52.00
1367;DHT22;16877;48.810;9.282;2024-03-23T05:26:17;20.70;51.90
1367;DHT22;16877;48.810;9.282;2024-03-23T05:28:43;20.60;52.00
1367;DHT22;16877;48.810;9.282;2024-03-23T05:31:11;20.60;52.20
1367;DHT22;16877;48.810;9.282;2024-03-23T05:33:37;20.50;52.30
1367;DHT22;16877;48.810;9.282;2024-03-23T05:36:05;20.50;52.20
1367;DHT22;16877;48.810;9.282;2024-03-23T05:38:30;20.50;52.20
1367;DHT22;16877;48.810;9.282;2024-03-23T05:40:58;20.50;52.20
1367;DHT22;16877;48.810;9.282;2024-03-23T05:43:24;20.40;52.20
1367;DHT22;16877;48.810;9.282;2024-03-23T05:45:55;20.40;52.30
1367;DHT22;16877;48.810;9.282;2024-03-23T05:48:22;20.30;52.40
1367;DHT22;16877;48.810;9.282;2024-03-23T05:50:49;20.30;52.30
1367;DHT22;16877;48.810;9.282;2024-03-23T05:53:15;20.20;52.30
1367;DHT22;16877;48.810;9.282;2024-03-23T05:55:42;20.20;52.30
1367;DHT22;16877;48.810;9.282;2024-03-23T05:58:08;20.20;52.20
1367;DHT22;16877;48.810;9.282;2024-03-23T06:00:35;20.10;52.10
1367;DHT22;16877;48.810;9.282;2024-03-23T06:03:01;20.00;52.20
1367;DHT22;16877;48.810;9.282;2024-03-23T06:05:29;19.90;52.10
1367;DHT22;16877;48.810;9.282;2024-03-23T06:07:55;19.90;52.20
1367;DHT22;16877;48.810;9.282;2024-03-23T06:10:22;19.90;52.20
1367;DHT22;16877;48.810;9.282;2024-03-23T06:12:48;19.90;51.80
1367;DHT22;16877;48.810;9.282;2024-03-23T06:15:17;19.80;51.10
1367;DHT22;16877;48.810;9.282;2024-03-23T06:17:43;19.70;50.80
1367;DHT22;16877;48.810;9.282;2024-03-23T06:20:10;19.70;50.60
1367;DHT22;16877;48.810;9.282;2024-03-23T06:22:37;19.60;50.30
1367;DHT22;16877;48.810;9.282;2024-03-23T06:25:04;19.60;50.30
1367;DHT22;16877;48.810;9.282;2024-03-23T06:27:30;19.60;50.40
1367;DHT22;16877;48.810;9.282;2024-03-23T06:29:57;19.50;50.30
1367;DHT22;16877;48.810;9.282;2024-03-23T06:32:23;19.50;50.20
1367;DHT22;16877;48.810;9.282;2024-03-23T06:34:49;19.50;50.90
1367;DHT22;16877;48.810;9.282;2024-03-23T06:37:15;19.50;50.10
1367;DHT22;16877;48.810;9.282;2024-03-23T06:39:45;19.50;50.10
1367;DHT22;16877;48.810;9.282;2024-03-23T06:42:11;19.40;50.20
1367;DHT22;16877;48.810;9.282;2024-03-23T06:44:38;19.50;50.10
1367;DHT22;16877;48.810;9.282;2024-03-23T06:47:04;19.50;49.80
1367;DHT22;16877;48.810;9.282;2024-03-23T06:49:30;19.40;49.50
1367;DHT22;16877;48.810;9.282;2024-03-23T06:51:56;19.40;51.90
1367;DHT22;16877;48.810;9.282;2024-03-23T06:54:24;20.00;56.30
1367;DHT22;16877;48.810;9.282;2024-03-23T06:56:51;20.70;55.70
1367;DHT22;16877;48.810;9.282;2024-03-23T06:59:18;21.20;54.50
1367;DHT22;16877;48.810;9.282;2024-03-23T07:01:43;21.70;53.50
1367;DHT22;16877;48.810;9.282;2024-03-23T07:04:10;22.00;52.60
1367;DHT22;16877;48.810;9.282;2024-03-23T07:06:42;22.30;51.90
1367;DHT22;16877;48.810;9.282;2024-03-23T07:09:09;22.60;51.20
1367;DHT22;16877;48.810;9.282;2024-03-23T07:11:35;22.80;50.70
1367;DHT22;16877;48.810;9.282;2024-03-23T07:14:03;23.00;50.20
1367;DHT22;16877;48.810;9.282;2024-03-23T07:16:28;23.20;49.80
1367;DHT22;16877;48.810;9.282;2024-03-23T07:18:55;23.20;49.30
1367;DHT22;16877;48.810;9.282;2024-03-23T07:21:21;23.40;49.20
1367;DHT22;16877;48.810;9.282;2024-03-23T07:23:47;23.30;47.30
1367;DHT22;16877;48.810;9.282;2024-03-23T07:26:13;22.90;45.90
1367;DHT22;16877;48.810;9.282;2024-03-23T07:28:40;22.60;45.50
1367;DHT22;16877;48.810;9.282;2024-03-23T07:31:11;22.30;45.60
1367;DHT22;16877;48.810;9.282;2024-03-23T07:33:41;22.10;45.70
1367;DHT22;16877;48.810;9.282;2024-03-23T07:36:08;21.90;45.90
1367;DHT22;16877;48.810;9.282;2024-03-23T07:38:34;21.70;45.90
1367;DHT22;16877;48.810;9.282;2024-03-23T07:41:04;21.50;46.00
1367;DHT22;16877;48.810;9.282;2024-03-23T07:43:31;21.30;46.80
1367;DHT22;16877;48.810;9.282;2024-03-23T07:45:57;21.20;46.30
1367;DHT22;16877;48.810;9.282;2024-03-23T07:48:25;21.00;46.30
1367;DHT22;16877;48.810;9.282;2024-03-23T07:51:01;20.90;46.60
1367;DHT22;16877;48.810;9.282;2024-03-23T07:53:28;20.70;46.80
1367;DHT22;16877;48.810;9.282;2024-03-23T07:55:57;20.60;46.90
1367;DHT22;16877;48.810;9.282;2024-03-23T07:58:25;20.50;46.80
1367;DHT22;16877;48.810;9.282;2024-03-23T08:00:51;20.40;47.20
1367;DHT22;16877;48.810;9.282;2024-03-23T08:03:17;20.10;47.30
1367;DHT22;16877;48.810;9.282;2024-03-23T08:05:44;20.00;47.70
1367;DHT22;16877;48.810;9.282;2024-03-23T08:08:11;19.80;48.00
1367;DHT22;16877;48.810;9.282;2024-03-23T08:10:49;19.80;48.30
1367;DHT22;16877;48.810;9.282;2024-03-23T08:13:15;19.80;48.30
1367;DHT22;16877;48.810;9.282;2024-03-23T08:15:41;19.80;48.50
1367;DHT22;16877;48.810;9.282;2024-03-23T08:18:09;19.90;48.70
1367;DHT22;16877;48.810;9.282;2024-03-23T08:20:35;19.80;48.80
1367;DHT22;16877;48.810;9.282;2024-03-23T08:23:03;19.80;49.00
1367;DHT22;16877;48.810;9.282;2024-03-23T08:25:31;19.80;48.70
1367;DHT22;16877;48.810;9.282;2024-03-23T08:27:57;19.80;48.70
1367;DHT22;16877;48.810;9.282;2024-03-23T08:30:23;19.80;52.90
1367;DHT22;16877;48.810;9.282;2024-03-23T08:32:50;20.50;54.60
1367;DHT22;16877;48.810;9.282;2024-03-23T08:35:16;20.60;51.20
1367;DHT22;16877;48.810;9.282;2024-03-23T08:37:42;20.60;49.00
1367;DHT22;16877;48.810;9.282;2024-03-23T08:40:10;20.40;48.20
1367;DHT22;16877;48.810;9.282;2024-03-23T08:42:37;20.30;47.80
1367;DHT22;16877;48.810;9.282;2024-03-23T08:45:04;20.20;47.50
1367;DHT22;16877;48.810;9.282;2024-03-23T08:47:34;20.10;47.00
1367;DHT22;16877;48.810;9.282;2024-03-23T08:50:00;20.10;47.00
1367;DHT22;16877;48.810;9.282;2024-03-23T08:52:27;20.00;46.80
1367;DHT22;16877;48.810;9.282;2024-03-23T08:54:54;20.00;46.60
1367;DHT22;16877;48.810;9.282;2024-03-23T08:57:22;19.90;46.30
1367;DHT22;16877;48.810;9.282;2024-03-23T08:59:48;19.90;46.30
1367;DHT22;16877;48.810;9.282;2024-03-23T09:02:15;19.80;46.40
1367;DHT22;16877;48.810;9.282;2024-03-23T09:04:40;19.70;46.10
1367;DHT22;16877;48.810;9.282;2024-03-23T09:07:07;19.60;46.20
1367;DHT22;16877;48.810;9.282;2024-03-23T09:09:33;19.60;46.50
1367;DHT22;16877;48.810;9.282;2024-03-23T09:11:59;19.60;46.70
1367;DHT22;16877;48.810;9.282;2024-03-23T09:14:26;19.50;46.60
1367;DHT22;16877;48.810;9.282;2024-03-23T09:16:55;19.50;46.80
1367;DHT22;16877;48.810;9.282;2024-03-23T09:19:20;19.40;46.50
1367;DHT22;16877;48.810;9.282;2024-03-23T09:21:47;19.40;46.60
1367;DHT22;16877;48.810;9.282;2024-03-23T09:24:14;19.30;46.50
1367;DHT22;16877;48.810;9.282;2024-03-23T09:26:41;19.30;46.70
1367;DHT22;16877;48.810;9.282;2024-03-23T09:29:06;19.30;46.60
1367;DHT22;16877;48.810;9.282;2024-03-23T09:31:34;19.60;46.70
1367;DHT22;16877;48.810;9.282;2024-03-23T09:34:00;19.60;46.50
1367;DHT22;16877;48.810;9.282;2024-03-23T09:36:27;19.60;46.00
1367;DHT22;16877;48.810;9.282;2024-03-23T09:38:53;19.70;45.90
1367;DHT22;16877;48.810;9.282;2024-03-23T09:41:19;19.70;45.70
1367;DHT22;16877;48.810;9.282;2024-03-23T09:43:45;19.70;45.40
1367;DHT22;16877;48.810;9.282;2024-03-23T09:46:14;19.80;45.20
1367;DHT22;16877;48.810;9.282;2024-03-23T09:48:42;20.00;45.10
1367;DHT22;16877;48.810;9.282;2024-03-23T09:51:11;20.20;45.20
1367;DHT22;16877;48.810;9.282;2024-03-23T09:53:37;20.40;45.00
1367;DHT22;16877;48.810;9.282;2024-03-23T09:56:05;20.40;44.50
1367;DHT22;16877;48.810;9.282;2024-03-23T09:58:30;20.40;44.50
1367;DHT22;16877;48.810;9.282;2024-03-23T10:00:58;20.30;44.30
1367;DHT22;16877;48.810;9.282;2024-03-23T10:03:24;20.30;44.40
1367;DHT22;16877;48.810;9.282;2024-03-23T10:06:02;20.30;44.30
1367;DHT22;16877;48.810;9.282;2024-03-23T10:08:29;20.30;44.80
1367;DHT22;16877;48.810;9.282;2024-03-23T10:10:55;20.30;44.10
1367;DHT22;16877;48.810;9.282;2024-03-23T10:13:25;20.30;43.90
1367;DHT22;16877;48.810;9.282;2024-03-23T10:15:56;20.30;43.70
1367;DHT22;16877;48.810;9.282;2024-03-23T10:18:23;20.20;43.40
1367;DHT22;16877;48.810;9.282;2024-03-23T10:20:52;20.30;43.30
1367;DHT22;16877;48.810;9.282;2024-03-23T10:23:20;20.40;43.40
1367;DHT22;16877;48.810;9.282;2024-03-23T10:25:49;20.50;43.50
1367;DHT22;16877;48.810;9.282;2024-03-23T10:28:14;21.00;43.70
1367;DHT22;16877;48.810;9.282;2024-03-23T10:30:41;21.20;43.70
1367;DHT22;16877;48.810;9.282;2024-03-23T10:33:08;21.80;44.20
1367;DHT22;16877;48.810;9.282;2024-03-23T10:35:35;21.90;43.60
1367;DHT22;16877;48.810;9.282;2024-03-23T10:38:04;22.60;41.70
1367;DHT22;16877;48.810;9.282;2024-03-23T10:40:34;22.50;40.10
1367;DHT22;16877;48.810;9.282;2024-03-23T10:43:00;22.40;40.00
1367;DHT22;16877;48.810;9.282;2024-03-23T10:45:27;22.30;39.40
1367;DHT22;16877;48.810;9.282;2024-03-23T10:47:53;22.30;39.00
1367;DHT22;16877;48.810;9.282;2024-03-23T10:50:20;22.10;38.90
1367;DHT22;16877;48.810;9.282;2024-03-23T10:52:47;21.90;38.50
1367;DHT22;16877;48.810;9.282;2024-03-23T10:55:17;21.70;38.20
1367;DHT22;16877;48.810;9.282;2024-03-23T10:57:49;21.50;38.70
1367;DHT22;16877;48.810;9.282;2024-03-23T11:00:17;21.40;39.20
1367;DHT22;16877;48.810;9.282;2024-03-23T11:02:43;21.30;40.20
1367;DHT22;16877;48.810;9.282;2024-03-23T11:05:28;21.10;41.60
1367;DHT22;16877;48.810;9.282;2024-03-23T11:07:54;20.90;42.40
1367;DHT22;16877;48.810;9.282;2024-03-23T11:10:26;20.70;42.70
1367;DHT22;16877;48.810;9.282;2024-03-23T11:12:53;20.50;43.10
1367;DHT22;16877;48.810;9.282;2024-03-23T11:15:20;20.30;43.30
1367;DHT22;16877;48.810;9.282;2024-03-23T11:18:03;20.30;48.20
1367;DHT22;16877;48.810;9.282;2024-03-23T11:20:34;20.20;45.60
1367;DHT22;16877;48.810;9.282;2024-03-23T11:23:00;20.20;45.00
1367;DHT22;16877;48.810;9.282;2024-03-23T11:25:28;20.40;44.70
1367;DHT22;16877;48.810;9.282;2024-03-23T11:30:54;20.60;44.60
1367;DHT22;16877;48.810;9.282;2024-03-23T11:33:21;20.80;44.80
1367;DHT22;16877;48.810;9.282;2024-03-23T11:35:47;20.90;44.90
1367;DHT22;16877;48.810;9.282;2024-03-23T11:38:15;21.30;44.90
1367;DHT22;16877;48.810;9.282;2024-03-23T11:40:44;21.30;44.30
1367;DHT22;16877;48.810;9.282;2024-03-23T11:43:13;21.60;44.30
1367;DHT22;16877;48.810;9.282;2024-03-23T11:45:40;21.80;44.10
1367;DHT22;16877;48.810;9.282;2024-03-23T11:48:08;22.20;43.90
1367;DHT22;16877;48.810;9.282;2024-03-23T11:50:36;22.20;43.70
1367;DHT22;16877;48.810;9.282;2024-03-23T11:53:12;22.30;43.60
1367;DHT22;16877;48.810;9.282;2024-03-23T11:55:40;22.80;43.70
1367;DHT22;16877;48.810;9.282;2024-03-23T11:58:06;23.00;43.70
1367;DHT22;16877;48.810;9.282;2024-03-23T12:00:34;23.10;43.40
1367;DHT22;16877;48.810;9.282;2024-03-23T12:03:01;23.20;42.80
1367;DHT22;16877;48.810;9.282;2024-03-23T12:05:27;23.10;42.20
1367;DHT22;16877;48.810;9.282;2024-03-23T12:07:54;23.00;42.50
1367;DHT22;16877;48.810;9.282;2024-03-23T12:10:20;23.00;42.00
1367;DHT22;16877;48.810;9.282;2024-03-23T12:12:59;22.80;41.00
1367;DHT22;16877;48.810;9.282;2024-03-23T12:15:25;22.50;39.50
1367;DHT22;16877;48.810;9.282;2024-03-23T12:18:06;22.30;39.80
1367;DHT22;16877;48.810;9.282;2024-03-23T12:20:31;22.20;39.40
1367;DHT22;16877;48.810;9.282;2024-03-23T12:23:05;22.00;39.30
1367;DHT22;16877;48.810;9.282;2024-03-23T12:25:31;21.90;39.30
1367;DHT22;16877;48.810;9.282;2024-03-23T12:27:59;21.80;39.30
1367;DHT22;16877;48.810;9.282;2024-03-23T12:30:25;21.70;39.30
1367;DHT22;16877;48.810;9.282;2024-03-23T12:32:53;21.60;39.40
1367;DHT22;16877;48.810;9.282;2024-03-23T12:35:18;21.60;39.40
1367;DHT22;16877;48.810;9.282;2024-03-23T12:37:45;21.50;39.20
1367;DHT22;16877;48.810;9.282;2024-03-23T12:40:11;21.70;38.80
1367;DHT22;16877;48.810;9.282;2024-03-23T12:42:38;21.60;38.60
1367;DHT22;16877;48.810;9.282;2024-03-23T12:45:04;21.50;39.00
1367;DHT22;16877;48.810;9.282;2024-03-23T12:47:31;21.70;38.70
1367;DHT22;16877;48.810;9.282;2024-03-23T12:49:58;21.60;38.50
1367;DHT22;16877;48.810;9.282;2024-03-23T12:52:24;21.50;38.20
1367;DHT22;16877;48.810;9.282;2024-03-23T12:54:54;21.30;38.80
1367;DHT22;16877;48.810;9.282;2024-03-23T12:57:22;21.30;37.80
1367;DHT22;16877;48.810;9.282;2024-03-23T12:59:47;21.10;38.50
1367;DHT22;16877;48.810;9.282;2024-03-23T13:02:17;21.00;38.30
1367;DHT22;16877;48.810;9.282;2024-03-23T13:04:43;21.00;38.80
1367;DHT22;16877;48.810;9.282;2024-03-23T13:07:11;21.00;38.60
1367;DHT22;16877;48.810;9.282;2024-03-23T13:09:36;21.30;38.30
1367;DHT22;16877;48.810;9.282;2024-03-23T13:12:03;22.10;39.30
1367;DHT22;16877;48.810;9.282;2024-03-23T13:14:29;22.90;38.90
1367;DHT22;16877;48.810;9.282;2024-03-23T13:16:56;23.50;38.50
1367;DHT22;16877;48.810;9.282;2024-03-23T13:19:21;24.20;38.40
1367;DHT22;16877;48.810;9.282;2024-03-23T13:21:52;24.80;37.70
1367;DHT22;16877;48.810;9.282;2024-03-23T13:24:21;25.20;36.90
1367;DHT22;16877;48.810;9.282;2024-03-23T13:26:49;25.20;36.30
1367;DHT22;16877;48.810;9.282;2024-03-23T13:29:15;24.90;36.10
1367;DHT22;16877;48.810;9.282;2024-03-23T13:31:42;25.10;35.90
1367;DHT22;16877;48.810;9.282;2024-03-23T13:34:08;25.30;35.20
1367;DHT22;16877;48.810;9.282;2024-03-23T13:36:34;25.10;35.20
1367;DHT22;16877;48.810;9.282;2024-03-23T13:39:01;24.90;35.30
1367;DHT22;16877;48.810;9.282;2024-03-23T13:41:32;24.80;34.90
1367;DHT22;16877;48.810;9.282;2024-03-23T13:43:58;25.00;34.60
1367;DHT22;16877;48.810;9.282;2024-03-23T13:46:24;25.00;34.00
1367;DHT22;16877;48.810;9.282;2024-03-23T13:48:51;24.80;33.80
1367;DHT22;16877;48.810;9.282;2024-03-23T13:51:23;25.50;34.30
1367;DHT22;16877;48.810;9.282;2024-03-23T13:53:50;26.10;34.20
1367;DHT22;16877;48.810;9.282;2024-03-23T13:56:16;26.60;33.50
1367;DHT22;16877;48.810;9.282;2024-03-23T13:58:44;26.90;33.10
1367;DHT22;16877;48.810;9.282;2024-03-23T14:01:13;27.40;33.10
1367;DHT22;16877;48.810;9.282;2024-03-23T14:03:39;27.80;32.10
1367;DHT22;16877;48.810;9.282;2024-03-23T14:06:06;27.80;31.20
1367;DHT22;16877;48.810;9.282;2024-03-23T14:08:33;27.40;30.80
1367;DHT22;16877;48.810;9.282;2024-03-23T14:11:01;26.70;31.80
1367;DHT22;16877;48.810;9.282;2024-03-23T14:13:28;26.10;33.50
1367;DHT22;16877;48.810;9.282;2024-03-23T14:15:55;25.50;34.80
1367;DHT22;16877;48.810;9.282;2024-03-23T14:18:22;24.80;35.80
1367;DHT22;16877;48.810;9.282;2024-03-23T14:20:48;24.20;36.50
1367;DHT22;16877;48.810;9.282;2024-03-23T14:23:15;23.70;37.50
1367;DHT22;16877;48.810;9.282;2024-03-23T14:25:40;23.30;38.20
1367;DHT22;16877;48.810;9.282;2024-03-23T14:28:07;22.80;38.90
1367;DHT22;16877;48.810;9.282;2024-03-23T14:30:39;22.40;39.40
1367;DHT22;16877;48.810;9.282;2024-03-23T14:33:07;22.10;39.80
1367;DHT22;16877;48.810;9.282;2024-03-23T14:35:33;21.80;40.00
1367;DHT22;16877;48.810;9.282;2024-03-23T14:37:59;21.60;40.30
1367;DHT22;16877;48.810;9.282;2024-03-23T14:40:25;22.10;41.00
1367;DHT22;16877;48.810;9.282;2024-03-23T14:42:53;22.70;41.40
1367;DHT22;16877;48.810;9.282;2024-03-23T14:45:19;23.30;41.60
1367;DHT22;16877;48.810;9.282;2024-03-23T14:47:46;23.80;41.80
1367;DHT22;16877;48.810;9.282;2024-03-23T14:50:13;24.40;41.70
1367;DHT22;16877;48.810;9.282;2024-03-23T14:52:41;24.80;41.50
1367;DHT22;16877;48.810;9.282;2024-03-23T14:55:07;25.20;40.60
1367;DHT22;16877;48.810;9.282;2024-03-23T14:57:35;25.50;40.10
1367;DHT22;16877;48.810;9.282;2024-03-23T15:00:01;25.80;39.70
1367;DHT22;16877;48.810;9.282;2024-03-23T15:02:30;25.40;39.20
1367;DHT22;16877;48.810;9.282;2024-03-23T15:04:57;25.00;38.60
1367;DHT22;16877;48.810;9.282;2024-03-23T15:07:25;24.70;38.60
1367;DHT22;16877;48.810;9.282;2024-03-23T15:09:51;24.40;38.70
1367;DHT22;16877;48.810;9.282;2024-03-23T15:12:19;24.20;38.60
1367;DHT22;16877;48.810;9.282;2024-03-23T15:14:44;24.10;38.60
1367;DHT22;16877;48.810;9.282;2024-03-23T15:17:11;24.20;38.50
1367;DHT22;16877;48.810;9.282;2024-03-23T15:19:37;24.40;38.60
1367;DHT22;16877;48.810;9.282;2024-03-23T15:22:04;24.80;38.50
1367;DHT22;16877;48.810;9.282;2024-03-23T15:24:31;25.00;38.10
1367;DHT22;16877;48.810;9.282;2024-03-23T15:26:59;25.10;37.70
1367;DHT22;16877;48.810;9.282;2024-03-23T15:29:25;25.10;36.80
1367;DHT22;16877;48.810;9.282;2024-03-23T15:31:51;25.20;36.70
1367;DHT22;16877;48.810;9.282;2024-03-23T15:34:18;25.30;36.50
1367;DHT22;16877;48.810;9.282;2024-03-23T15:36:47;25.40;36.40
1367;DHT22;16877;48.810;9.282;2024-03-23T15:39:13;25.60;36.10
1367;DHT22;16877;48.810;9.282;2024-03-23T15:41:44;25.70;36.10
1367;DHT22;16877;48.810;9.282;2024-03-23T15:44:09;25.90;35.80
1367;DHT22;16877;48.810;9.282;2024-03-23T15:46:36;25.90;35.80
1367;DHT22;16877;48.810;9.282;2024-03-23T15:49:02;25.60;35.50
1367;DHT22;16877;48.810;9.282;2024-03-23T15:51:29;25.70;35.50
1367;DHT22;16877;48.810;9.282;2024-03-23T15:53:58;25.70;35.50
1367;DHT22;16877;48.810;9.282;2024-03-23T15:56:25;26.00;35.80
1367;DHT22;16877;48.810;9.282;2024-03-23T15:58:52;26.20;35.60
1367;DHT22;16877;48.810;9.282;2024-03-23T16:01:19;26.30;34.90
1367;DHT22;16877;48.810;9.282;2024-03-23T16:03:45;26.40;35.00
1367;DHT22;16877;48.810;9.282;2024-03-23T16:06:11;26.50;35.00
1367;DHT22;16877;48.810;9.282;2024-03-23T16:08:37;26.30;34.80
1367;DHT22;16877;48.810;9.282;2024-03-23T16:11:05;26.10;34.70
1367;DHT22;16877;48.810;9.282;2024-03-23T16:13:31;25.90;34.60
1367;DHT22;16877;48.810;9.282;2024-03-23T16:16:00;25.60;34.30
1367;DHT22;16877;48.810;9.282;2024-03-23T16:18:26;25.60;34.60
1367;DHT22;16877;48.810;9.282;2024-03-23T16:20:54;25.60;34.40
1367;DHT22;16877;48.810;9.282;2024-03-23T16:23:19;25.50;34.20
1367;DHT22;16877;48.810;9.282;2024-03-23T16:25:47;25.30;34.10
1367;DHT22;16877;48.810;9.282;2024-03-23T16:28:22;25.00;34.10
1367;DHT22;16877;48.810;9.282;2024-03-23T16:30:54;24.70;34.40
1367;DHT22;16877;48.810;9.282;2024-03-23T16:33:21;24.50;34.80
1367;DHT22;16877;48.810;9.282;2024-03-23T16:35:58;24.20;34.80
1367;DHT22;16877;48.810;9.282;2024-03-23T16:38:24;23.90;34.90